Time;durP1;ratioP1;P1;durP2;ratioP2;P2;SDS_P1;SDS_P2;PMS_P1;PMS_P2;Temp;Humidity;BMP_temperature;BMP_pressure;BME280_temperature;BME280_humidity;BME280_pressure;Samples;Min_cycle;Max_cycle;Signal;HPM_P1;HPM_P2
2022/10/26 00:00:15;;;;;;;1.30;1.30;;;;;;;;;;4954694;28;20236;-55
2022/10/26 00:02:41;;;;;;;1.07;1.07;;;;;;;;;;4960071;28;20226;-55
2022/10/26 00:05:07;;;;;;;1.40;1.40;;;;;;;;;;4960258;28;20607;-55
2022/10/26 00:07:33;;;;;;;1.50;1.50;;;;;;;;;;4957317;28;20233;-56
2022/10/26 00:09:59;;;;;;;1.20;1.20;;;;;;;;;;4947537;28;20234;-55
2022/10/26 00:12:25;;;;;;;1.10;1.10;;;;;;;;;;4949983;28;20657;-55
2022/10/26 00:14:51;;;;;;;1.20;1.20;;;;;;;;;;4944721;28;20312;-58
2022/10/26 00:17:17;;;;;;;1.30;1.30;;;;;;;;;;4948546;28;20255;-59
2022/10/26 00:19:43;;;;;;;1.20;1.20;;;;;;;;;;4959183;28;20226;-60
2022/10/26 00:22:09;;;;;;;1.10;1.10;;;;;;;;;;4962147;28;20226;-59
2022/10/26 00:24:35;;;;;;;1.33;1.33;;;;;;;;;;4959007;28;20210;-60
2022/10/26 00:27:01;;;;;;;1.20;1.20;;;;;;;;;;4948979;28;21095;-59
2022/10/26 00:29:27;;;;;;;1.13;1.13;;;;;;;;;;4954674;28;20253;-60
2022/10/26 00:31:53;;;;;;;1.33;1.33;;;;;;;;;;4967404;28;20241;-60
2022/10/26 00:34:19;;;;;;;1.50;1.50;;;;;;;;;;4960538;28;20336;-60
2022/10/26 00:36:44;;;;;;;1.40;1.40;;;;;;;;;;4946561;28;20301;-60
2022/10/26 00:39:11;;;;;;;1.10;1.10;;;;;;;;;;4920158;28;21613;-60
2022/10/26 00:41:37;;;;;;;1.33;1.33;;;;;;;;;;4917195;28;20230;-59
2022/10/26 00:44:22;;;;;;;1.47;1.47;;;;;;;;;;4920042;28;20329;-58
2022/10/26 00:46:48;;;;;;;1.43;1.43;;;;;;;;;;4932634;28;21710;-60
2022/10/26 00:49:15;;;;;;;1.57;1.57;;;;;;;;;;4931866;28;20362;-60
2022/10/26 00:51:42;;;;;;;1.20;1.20;;;;;;;;;;4946371;28;20227;-60
2022/10/26 00:54:10;;;;;;;1.40;1.40;;;;;;;;;;4942263;28;21021;-58
2022/10/26 00:56:36;;;;;;;1.30;1.30;;;;;;;;;;4932293;28;20810;-60
2022/10/26 00:59:02;;;;;;;1.53;1.53;;;;;;;;;;4946967;28;20305;-60
2022/10/26 01:01:28;;;;;;;1.50;1.50;;;;;;;;;;4946717;28;20993;-60
2022/10/26 01:03:54;;;;;;;1.30;1.30;;;;;;;;;;4937525;28;20235;-59
2022/10/26 01:06:20;;;;;;;1.70;1.70;;;;;;;;;;4914533;28;1035261;-60
2022/10/26 01:08:46;;;;;;;1.30;1.30;;;;;;;;;;4965122;28;20269;-59
2022/10/26 01:11:12;;;;;;;1.20;1.20;;;;;;;;;;4961541;28;20227;-57
2022/10/26 01:13:38;;;;;;;1.40;1.40;;;;;;;;;;4949412;28;26631;-61
2022/10/26 01:16:07;;;;;;;1.53;1.53;;;;;;;;;;4950239;28;20785;-60
2022/10/26 01:18:52;;;;;;;1.20;1.20;;;;;;;;;;4943309;28;20257;-60
2022/10/26 01:21:18;;;;;;;1.27;1.27;;;;;;;;;;4965269;28;20316;-60
2022/10/26 01:23:44;;;;;;;1.13;1.13;;;;;;;;;;4959063;28;20577;-59
2022/10/26 01:26:27;;;;;;;1.30;1.30;;;;;;;;;;4965791;28;20218;-60
2022/10/26 01:29:07;;;;;;;1.20;1.20;;;;;;;;;;4946366;28;20454;-60
2022/10/26 01:31:34;;;;;;;1.40;1.40;;;;;;;;;;4930893;28;20230;-58
2022/10/26 01:34:01;;;;;;;1.30;1.30;;;;;;;;;;4947473;28;20217;-60
2022/10/26 01:36:43;;;;;;;1.20;1.20;;;;;;;;;;4947851;28;20237;-60
2022/10/26 01:39:16;;;;;;;1.30;1.30;;;;;;;;;;4954784;28;20257;-58
2022/10/26 01:41:44;;;;;;;1.00;1.00;;;;;;;;;;4941626;28;21612;-60
2022/10/26 01:44:12;;;;;;;1.30;1.30;;;;;;;;;;4958090;28;20475;-60
2022/10/26 01:46:38;;;;;;;1.20;1.20;;;;;;;;;;4951194;28;20378;-59
2022/10/26 01:49:08;;;;;;;1.20;1.20;;;;;;;;;;4963431;28;20220;-58
2022/10/26 01:51:34;;;;;;;1.10;1.10;;;;;;;;;;4931585;28;20229;-59
2022/10/26 01:54:00;;;;;;;1.57;1.57;;;;;;;;;;4973321;28;20244;-60
2022/10/26 01:56:30;;;;;;;1.37;1.37;;;;;;;;;;4958916;28;20875;-59
2022/10/26 01:59:31;;;;;;;1.10;1.10;;;;;;;;;;4948161;28;20230;-58
2022/10/26 02:02:12;;;;;;;1.30;1.30;;;;;;;;;;4860064;29;20374;-59
2022/10/26 02:04:58;;;;;;;1.40;1.40;;;;;;;;;;4928000;28;20269;-61
2022/10/26 02:07:47;;;;;;;1.30;1.30;;;;;;;;;;4938085;28;20224;-59
2022/10/26 02:10:20;;;;;;;1.50;1.50;;;;;;;;;;4942013;28;20817;-59
2022/10/26 02:12:45;;;;;;;1.50;1.50;;;;;;;;;;4950575;28;20222;-59
2022/10/26 02:15:15;;;;;;;1.50;1.50;;;;;;;;;;4956712;28;20268;-60
2022/10/26 02:18:00;;;;;;;1.90;1.80;;;;;;;;;;4956315;28;20229;-59
2022/10/26 02:20:27;;;;;;;1.40;1.40;;;;;;;;;;4951002;28;20230;-58
2022/10/26 02:22:53;;;;;;;1.30;1.30;;;;;;;;;;4942333;28;20669;-59
2022/10/26 02:25:26;;;;;;;1.30;1.30;;;;;;;;;;4956373;28;20234;-60
2022/10/26 02:27:55;;;;;;;1.40;1.40;;;;;;;;;;4960717;28;20260;-59
2022/10/26 02:30:21;;;;;;;1.60;1.60;;;;;;;;;;4957785;28;20344;-61
2022/10/26 02:32:51;;;;;;;1.30;1.30;;;;;;;;;;4947205;28;20229;-58
2022/10/26 02:35:17;;;;;;;1.40;1.40;;;;;;;;;;4949298;28;20225;-60
2022/10/26 02:37:43;;;;;;;1.30;1.30;;;;;;;;;;4952037;28;20702;-58
2022/10/26 02:40:10;;;;;;;1.10;1.10;;;;;;;;;;4953184;28;20225;-60
2022/10/26 02:42:37;;;;;;;1.30;1.30;;;;;;;;;;4927997;28;20600;-60
2022/10/26 02:45:04;;;;;;;1.40;1.40;;;;;;;;;;4931772;28;20635;-60
2022/10/26 02:47:30;;;;;;;1.30;1.30;;;;;;;;;;4947292;28;20817;-60
2022/10/26 02:49:56;;;;;;;1.40;1.40;;;;;;;;;;4972488;28;20257;-60
2022/10/26 02:52:31;;;;;;;1.67;1.67;;;;;;;;;;4967037;28;20232;-58
2022/10/26 02:55:02;;;;;;;1.50;1.50;;;;;;;;;;4965848;28;20222;-61
2022/10/26 02:57:29;;;;;;;1.53;1.53;;;;;;;;;;4929798;28;20312;-59
2022/10/26 02:59:55;;;;;;;1.30;1.30;;;;;;;;;;4931571;28;20235;-60
2022/10/26 03:02:21;;;;;;;1.20;1.20;;;;;;;;;;4970826;28;20232;-60
2022/10/26 03:04:47;;;;;;;1.20;1.20;;;;;;;;;;4971938;28;20538;-60
2022/10/26 03:07:13;;;;;;;1.40;1.40;;;;;;;;;;4975648;28;20691;-60
2022/10/26 03:09:39;;;;;;;1.40;1.40;;;;;;;;;;4956592;28;20222;-60
2022/10/26 03:12:05;;;;;;;1.50;1.50;;;;;;;;;;4950715;28;20231;-60
2022/10/26 03:14:31;;;;;;;1.30;1.30;;;;;;;;;;4963450;28;20302;-59
2022/10/26 03:16:57;;;;;;;1.50;1.50;;;;;;;;;;4969153;28;20240;-59
2022/10/26 03:19:23;;;;;;;1.30;1.30;;;;;;;;;;4974834;28;20809;-60
2022/10/26 03:21:49;;;;;;;1.50;1.50;;;;;;;;;;4972813;28;20360;-58
2022/10/26 03:24:15;;;;;;;1.60;1.60;;;;;;;;;;4968947;28;20278;-59
2022/10/26 03:26:41;;;;;;;1.40;1.40;;;;;;;;;;4953049;28;20292;-60
2022/10/26 03:29:07;;;;;;;1.10;1.10;;;;;;;;;;4940011;28;20225;-59
2022/10/26 03:31:33;;;;;;;1.43;1.43;;;;;;;;;;4950210;28;20235;-59
2022/10/26 03:33:59;;;;;;;1.40;1.40;;;;;;;;;;4954860;28;20230;-60
2022/10/26 03:36:25;;;;;;;1.37;1.37;;;;;;;;;;4945796;28;20677;-59
2022/10/26 03:38:51;;;;;;;1.20;1.20;;;;;;;;;;4960850;28;20866;-60
2022/10/26 03:41:17;;;;;;;1.10;1.10;;;;;;;;;;4957398;28;20221;-57
2022/10/26 03:43:43;;;;;;;1.30;1.30;;;;;;;;;;4955730;28;20308;-59
2022/10/26 03:46:09;;;;;;;1.43;1.43;;;;;;;;;;4957601;28;20768;-60
2022/10/26 03:48:35;;;;;;;1.40;1.40;;;;;;;;;;4950705;28;20712;-60
2022/10/26 03:51:01;;;;;;;1.33;1.33;;;;;;;;;;4958754;28;20237;-60
2022/10/26 03:53:27;;;;;;;1.30;1.30;;;;;;;;;;4953677;28;20251;-60
2022/10/26 03:55:53;;;;;;;1.10;1.10;;;;;;;;;;4959016;28;20264;-59
2022/10/26 03:58:19;;;;;;;1.30;1.30;;;;;;;;;;4947460;28;20268;-59
2022/10/26 04:00:45;;;;;;;1.47;1.47;;;;;;;;;;4952650;28;20225;-58
2022/10/26 04:03:10;;;;;;;1.50;1.50;;;;;;;;;;4953432;28;20229;-59
2022/10/26 04:05:36;;;;;;;1.30;1.30;;;;;;;;;;4956543;28;21356;-60
2022/10/26 04:08:02;;;;;;;1.50;1.50;;;;;;;;;;4958500;28;20222;-60
2022/10/26 04:10:28;;;;;;;1.50;1.50;;;;;;;;;;4950846;28;20227;-57
2022/10/26 04:12:54;;;;;;;1.20;1.20;;;;;;;;;;4948522;28;20813;-59
2022/10/26 04:15:20;;;;;;;1.10;1.10;;;;;;;;;;4963973;28;20320;-59
2022/10/26 04:17:46;;;;;;;1.50;1.50;;;;;;;;;;4961482;28;20233;-57
2022/10/26 04:20:12;;;;;;;1.50;1.50;;;;;;;;;;4955135;28;20317;-58
2022/10/26 04:22:38;;;;;;;1.20;1.20;;;;;;;;;;4964959;28;20222;-60
2022/10/26 04:25:05;;;;;;;1.40;1.40;;;;;;;;;;4970636;28;20628;-59
2022/10/26 04:27:31;;;;;;;1.30;1.30;;;;;;;;;;4961665;28;20238;-58
2022/10/26 04:29:56;;;;;;;1.23;1.23;;;;;;;;;;4973266;28;20788;-59
2022/10/26 04:32:23;;;;;;;1.30;1.30;;;;;;;;;;4973360;28;20218;-59
2022/10/26 04:34:49;;;;;;;1.10;1.10;;;;;;;;;;4948211;28;20868;-59
2022/10/26 04:37:15;;;;;;;1.50;1.50;;;;;;;;;;4953350;28;20261;-59
2022/10/26 04:39:41;;;;;;;1.33;1.33;;;;;;;;;;4953990;28;20222;-59
2022/10/26 04:42:07;;;;;;;1.60;1.60;;;;;;;;;;4946043;28;20225;-59
2022/10/26 04:44:32;;;;;;;1.57;1.57;;;;;;;;;;4930687;28;20233;-58
2022/10/26 04:46:58;;;;;;;1.20;1.20;;;;;;;;;;4962305;28;20229;-59
2022/10/26 04:49:24;;;;;;;1.67;1.67;;;;;;;;;;4936090;28;20245;-58
2022/10/26 04:51:50;;;;;;;1.60;1.60;;;;;;;;;;4957850;28;20650;-58
2022/10/26 04:54:16;;;;;;;1.57;1.57;;;;;;;;;;4953127;28;21562;-59
2022/10/26 04:56:42;;;;;;;1.40;1.40;;;;;;;;;;4945612;28;20317;-58
2022/10/26 04:59:08;;;;;;;1.50;1.50;;;;;;;;;;4934967;28;21131;-59
2022/10/26 05:01:34;;;;;;;1.60;1.60;;;;;;;;;;4938573;28;21212;-59
2022/10/26 05:04:00;;;;;;;1.40;1.40;;;;;;;;;;4949298;28;20729;-57
2022/10/26 05:06:26;;;;;;;1.60;1.60;;;;;;;;;;4939470;28;20736;-56
2022/10/26 05:08:52;;;;;;;1.57;1.57;;;;;;;;;;4928477;28;20328;-57
2022/10/26 05:11:18;;;;;;;1.50;1.50;;;;;;;;;;4955231;28;20222;-57
2022/10/26 05:13:44;;;;;;;1.50;1.50;;;;;;;;;;4942316;28;20233;-57
2022/10/26 05:16:10;;;;;;;1.47;1.47;;;;;;;;;;4933994;28;20249;-55
2022/10/26 05:18:36;;;;;;;1.50;1.50;;;;;;;;;;4962348;28;20701;-56
2022/10/26 05:21:02;;;;;;;1.73;1.70;;;;;;;;;;4964855;28;20225;-57
2022/10/26 05:23:28;;;;;;;1.57;1.57;;;;;;;;;;4954524;28;20733;-58
2022/10/26 05:25:55;;;;;;;1.30;1.30;;;;;;;;;;4971457;28;20249;-57
2022/10/26 05:28:21;;;;;;;1.50;1.50;;;;;;;;;;4967992;28;20237;-56
2022/10/26 05:30:47;;;;;;;1.67;1.67;;;;;;;;;;4972313;28;20232;-59
2022/10/26 05:33:13;;;;;;;1.67;1.67;;;;;;;;;;4972734;28;20217;-59
2022/10/26 05:35:39;;;;;;;1.40;1.40;;;;;;;;;;4970353;28;20691;-58
2022/10/26 05:38:09;;;;;;;1.30;1.30;;;;;;;;;;4976530;28;20252;-59
2022/10/26 05:40:35;;;;;;;1.60;1.60;;;;;;;;;;4972942;28;20601;-59
2022/10/26 05:43:01;;;;;;;1.30;1.30;;;;;;;;;;4969791;28;20653;-58
2022/10/26 05:45:27;;;;;;;1.60;1.60;;;;;;;;;;4964243;28;20309;-59
2022/10/26 05:47:53;;;;;;;1.30;1.30;;;;;;;;;;4971879;28;20597;-59
2022/10/26 05:50:19;;;;;;;1.50;1.50;;;;;;;;;;4969655;28;20240;-59
2022/10/26 05:52:45;;;;;;;1.30;1.30;;;;;;;;;;4968499;28;20240;-59
2022/10/26 05:55:12;;;;;;;1.60;1.60;;;;;;;;;;4977441;28;20226;-59
2022/10/26 05:57:38;;;;;;;1.40;1.40;;;;;;;;;;4983907;28;20231;-59
2022/10/26 06:00:08;;;;;;;1.10;1.10;;;;;;;;;;4978622;28;20689;-59
2022/10/26 06:02:37;;;;;;;1.30;1.30;;;;;;;;;;4975875;28;20237;-59
2022/10/26 06:05:03;;;;;;;1.10;1.10;;;;;;;;;;4973124;28;20274;-59
2022/10/26 06:07:30;;;;;;;1.40;1.40;;;;;;;;;;4975994;28;20883;-59
2022/10/26 06:09:56;;;;;;;1.50;1.50;;;;;;;;;;4984293;28;20229;-58
2022/10/26 06:12:22;;;;;;;1.53;1.53;;;;;;;;;;4969680;28;20230;-59
2022/10/26 06:14:48;;;;;;;1.50;1.50;;;;;;;;;;4956371;28;20222;-59
2022/10/26 06:17:17;;;;;;;1.47;1.47;;;;;;;;;;4968726;28;20266;-59
2022/10/26 06:19:45;;;;;;;1.40;1.40;;;;;;;;;;4979772;28;20239;-59
2022/10/26 06:22:17;;;;;;;1.83;1.77;;;;;;;;;;4991121;28;20272;-60
2022/10/26 06:24:53;;;;;;;1.50;1.50;;;;;;;;;;4982114;28;20578;-59
2022/10/26 06:27:21;;;;;;;1.57;1.57;;;;;;;;;;4969755;28;20748;-60
2022/10/26 06:29:55;;;;;;;1.40;1.40;;;;;;;;;;4970319;28;20230;-59
2022/10/26 06:32:22;;;;;;;1.30;1.30;;;;;;;;;;4968772;28;20237;-59
2022/10/26 06:34:49;;;;;;;1.33;1.33;;;;;;;;;;4984644;28;20215;-59
2022/10/26 06:37:15;;;;;;;1.20;1.20;;;;;;;;;;4989751;28;20293;-59
2022/10/26 06:39:44;;;;;;;1.30;1.30;;;;;;;;;;4975707;28;20222;-58
2022/10/26 06:42:11;;;;;;;1.30;1.30;;;;;;;;;;4974966;28;20637;-59
2022/10/26 06:44:37;;;;;;;1.33;1.33;;;;;;;;;;4966680;28;20247;-59
2022/10/26 06:47:07;;;;;;;1.20;1.20;;;;;;;;;;4974079;28;20279;-59
2022/10/26 06:49:36;;;;;;;1.30;1.30;;;;;;;;;;4967102;28;20313;-59
2022/10/26 06:52:13;;;;;;;1.30;1.30;;;;;;;;;;4969013;28;20251;-59
2022/10/26 06:54:39;;;;;;;1.50;1.50;;;;;;;;;;4952085;28;20310;-59
2022/10/26 06:57:07;;;;;;;1.43;1.43;;;;;;;;;;4966691;28;20231;-59
2022/10/26 06:59:37;;;;;;;1.03;1.03;;;;;;;;;;4959057;28;20250;-59
2022/10/26 07:02:03;;;;;;;1.30;1.30;;;;;;;;;;4958161;28;20226;-59
2022/10/26 07:04:29;;;;;;;1.03;1.03;;;;;;;;;;4983345;28;20255;-59
2022/10/26 07:06:56;;;;;;;1.30;1.30;;;;;;;;;;4974012;28;20237;-59
2022/10/26 07:09:21;;;;;;;1.10;1.10;;;;;;;;;;4975086;28;20581;-59
2022/10/26 07:11:47;;;;;;;1.43;1.43;;;;;;;;;;4978046;28;20225;-59
2022/10/26 07:14:13;;;;;;;1.50;1.50;;;;;;;;;;4980543;28;20227;-59
2022/10/26 07:16:39;;;;;;;1.10;1.10;;;;;;;;;;4971692;28;20243;-59
2022/10/26 07:19:05;;;;;;;1.10;1.10;;;;;;;;;;4965457;28;20313;-59
2022/10/26 07:21:31;;;;;;;1.50;1.50;;;;;;;;;;4984639;28;20731;-59
2022/10/26 07:23:57;;;;;;;1.17;1.17;;;;;;;;;;4969011;28;20210;-59
2022/10/26 07:26:24;;;;;;;1.00;1.00;;;;;;;;;;4975883;28;20325;-59
2022/10/26 07:28:50;;;;;;;1.13;1.13;;;;;;;;;;4971204;28;20230;-59
2022/10/26 07:31:16;;;;;;;1.70;1.70;;;;;;;;;;4971514;28;20706;-59
2022/10/26 07:33:43;;;;;;;1.27;1.27;;;;;;;;;;4980830;28;20225;-59
2022/10/26 07:36:09;;;;;;;1.40;1.40;;;;;;;;;;4976581;28;20639;-59
2022/10/26 07:38:35;;;;;;;1.13;1.13;;;;;;;;;;4990364;28;20234;-59
2022/10/26 07:41:02;;;;;;;1.33;1.33;;;;;;;;;;4974493;28;20223;-59
2022/10/26 07:43:28;;;;;;;1.10;1.10;;;;;;;;;;4981406;28;20233;-59
2022/10/26 07:45:53;;;;;;;1.10;1.10;;;;;;;;;;4983108;28;20691;-59
2022/10/26 07:48:19;;;;;;;1.20;1.20;;;;;;;;;;4967148;28;20653;-59
2022/10/26 07:50:45;;;;;;;1.10;1.10;;;;;;;;;;4971556;28;20316;-59
2022/10/26 07:53:11;;;;;;;1.13;1.13;;;;;;;;;;4962346;28;22875;-59
2022/10/26 07:55:37;;;;;;;0.97;0.97;;;;;;;;;;4971905;28;20242;-59
2022/10/26 07:58:03;;;;;;;0.90;0.90;;;;;;;;;;4973751;28;20230;-59
2022/10/26 08:00:29;;;;;;;1.00;1.00;;;;;;;;;;4976028;28;20225;-59
2022/10/26 08:02:55;;;;;;;1.30;1.30;;;;;;;;;;4981286;28;20309;-59
2022/10/26 08:05:21;;;;;;;1.10;1.10;;;;;;;;;;4962312;28;20335;-59
2022/10/26 08:07:47;;;;;;;1.13;1.13;;;;;;;;;;4972760;28;20222;-59
2022/10/26 08:10:13;;;;;;;1.10;1.10;;;;;;;;;;4980166;28;20234;-59
2022/10/26 08:12:39;;;;;;;1.20;1.20;;;;;;;;;;4986343;28;20226;-59
2022/10/26 08:15:06;;;;;;;1.67;1.67;;;;;;;;;;4976193;28;20226;-59
2022/10/26 08:17:32;;;;;;;1.30;1.30;;;;;;;;;;4967743;28;20222;-59
2022/10/26 08:19:58;;;;;;;2.00;1.90;;;;;;;;;;4968689;28;20215;-59
2022/10/26 08:22:24;;;;;;;1.70;1.70;;;;;;;;;;4975538;28;20565;-59
2022/10/26 08:24:50;;;;;;;1.60;1.60;;;;;;;;;;4972897;28;21704;-59
2022/10/26 08:27:15;;;;;;;1.20;1.20;;;;;;;;;;4974042;28;20228;-59
2022/10/26 08:29:42;;;;;;;1.10;1.10;;;;;;;;;;4974509;28;20284;-58
2022/10/26 08:32:08;;;;;;;1.20;1.20;;;;;;;;;;4970460;28;20225;-59
2022/10/26 08:34:34;;;;;;;1.47;1.47;;;;;;;;;;4972741;28;20241;-59
2022/10/26 08:37:00;;;;;;;1.10;1.10;;;;;;;;;;4974019;28;20242;-59
2022/10/26 08:39:27;;;;;;;1.20;1.20;;;;;;;;;;4971458;28;20284;-59
2022/10/26 08:41:56;;;;;;;1.10;1.10;;;;;;;;;;4986199;28;20732;-59
2022/10/26 08:44:23;;;;;;;1.00;1.00;;;;;;;;;;4974538;28;20229;-59
2022/10/26 08:46:50;;;;;;;1.40;1.40;;;;;;;;;;4977036;28;20309;-59
2022/10/26 08:49:23;;;;;;;1.10;1.10;;;;;;;;;;4984443;28;20229;-60
2022/10/26 08:51:49;;;;;;;1.30;1.30;;;;;;;;;;4950634;28;20283;-59
2022/10/26 08:54:17;;;;;;;1.20;1.20;;;;;;;;;;4977783;28;20233;-59
2022/10/26 08:56:44;;;;;;;1.20;1.20;;;;;;;;;;4969964;28;20262;-59
2022/10/26 08:59:28;;;;;;;0.90;0.90;;;;;;;;;;4950889;28;20253;-59
2022/10/26 09:01:54;;;;;;;1.07;1.07;;;;;;;;;;4973136;28;20255;-59
2022/10/26 09:04:22;;;;;;;1.30;1.30;;;;;;;;;;4976318;28;20730;-59
2022/10/26 09:07:07;;;;;;;1.00;1.00;;;;;;;;;;4954807;28;20671;-59
2022/10/26 09:09:43;;;;;;;1.00;1.00;;;;;;;;;;4952220;28;20227;-59
2022/10/26 09:12:24;;;;;;;0.90;0.90;;;;;;;;;;4970313;28;20229;-59
2022/10/26 09:15:08;;;;;;;0.97;0.97;;;;;;;;;;4969698;28;20240;-59
2022/10/26 09:17:52;;;;;;;0.90;0.90;;;;;;;;;;4957077;28;20236;-60
2022/10/26 09:20:33;;;;;;;1.07;1.07;;;;;;;;;;4980841;28;20252;-59
2022/10/26 09:23:18;;;;;;;0.90;0.90;;;;;;;;;;4964319;28;20286;-60
2022/10/26 09:25:44;;;;;;;0.80;0.80;;;;;;;;;;4973462;28;20420;-59
2022/10/26 09:28:15;;;;;;;0.90;0.90;;;;;;;;;;4963885;28;20256;-59
2022/10/26 09:30:42;;;;;;;1.07;1.07;;;;;;;;;;4956529;28;20655;-60
2022/10/26 09:33:14;;;;;;;0.98;0.98;;;;;;;;;;4954807;28;20218;-59
2022/10/26 09:35:43;;;;;;;0.77;0.77;;;;;;;;;;4974452;28;20234;-60
2022/10/26 09:38:24;;;;;;;0.90;0.90;;;;;;;;;;4969055;28;20258;-60
2022/10/26 09:40:59;;;;;;;0.65;0.65;;;;;;;;;;4966211;28;20317;-60
2022/10/26 09:43:34;;;;;;;0.80;0.80;;;;;;;;;;4975852;28;20600;-59
2022/10/26 09:46:00;;;;;;;0.85;0.85;;;;;;;;;;4973425;28;20588;-60
2022/10/26 09:48:35;;;;;;;0.98;0.98;;;;;;;;;;4970019;28;20226;-57
2022/10/26 09:51:01;;;;;;;0.90;0.90;;;;;;;;;;4972286;28;20222;-58
2022/10/26 09:53:27;;;;;;;0.82;0.82;;;;;;;;;;4976710;28;20267;-57
2022/10/26 09:56:09;;;;;;;0.60;0.60;;;;;;;;;;4976564;28;20229;-58
2022/10/26 09:58:36;;;;;;;0.55;0.55;;;;;;;;;;4982199;28;20230;-58
2022/10/26 10:01:02;;;;;;;1.10;1.10;;;;;;;;;;4984279;28;20273;-57
2022/10/26 10:03:29;;;;;;;1.20;1.20;;;;;;;;;;4970498;28;20706;-57
2022/10/26 10:06:14;;;;;;;1.30;1.30;;;;;;;;;;4987250;28;20716;-59
2022/10/26 10:08:40;;;;;;;1.30;1.30;;;;;;;;;;4989163;28;20328;-57
2022/10/26 10:11:07;;;;;;;1.40;1.40;;;;;;;;;;4972402;28;20217;-57
2022/10/26 10:13:34;;;;;;;1.40;1.40;;;;;;;;;;4982107;28;20603;-57
2022/10/26 10:16:00;;;;;;;1.20;1.20;;;;;;;;;;4990214;28;20592;-58
2022/10/26 10:18:26;;;;;;;1.20;1.20;;;;;;;;;;4970918;28;20240;-57
2022/10/26 10:20:54;;;;;;;1.30;1.30;;;;;;;;;;4968988;28;20235;-55
2022/10/26 10:23:26;;;;;;;1.35;1.35;;;;;;;;;;4964389;28;20592;-58
2022/10/26 10:25:58;;;;;;;1.40;1.40;;;;;;;;;;4975523;28;20297;-58
2022/10/26 10:28:24;;;;;;;1.20;1.20;;;;;;;;;;4979319;28;20663;-58
2022/10/26 10:31:00;;;;;;;1.30;1.30;;;;;;;;;;4974944;28;20223;-58
2022/10/26 10:33:37;;;;;;;1.33;1.33;;;;;;;;;;4975373;28;20234;-58
2022/10/26 10:36:03;;;;;;;1.20;1.20;;;;;;;;;;4977202;28;20235;-58
2022/10/26 10:38:29;;;;;;;1.10;1.10;;;;;;;;;;4971235;28;20685;-59
2022/10/26 10:40:58;;;;;;;0.93;0.93;;;;;;;;;;4980899;28;20215;-58
2022/10/26 10:43:24;;;;;;;1.10;1.10;;;;;;;;;;4968689;28;20234;-58
2022/10/26 10:45:51;;;;;;;1.30;1.30;;;;;;;;;;4980134;28;20222;-59
2022/10/26 10:48:17;;;;;;;1.00;1.00;;;;;;;;;;4947403;28;20226;-59
2022/10/26 10:50:50;;;;;;;0.90;0.90;;;;;;;;;;4968704;28;20217;-58
2022/10/26 10:53:21;;;;;;;0.98;0.98;;;;;;;;;;4966396;28;20218;-58
2022/10/26 10:56:05;;;;;;;1.10;1.10;;;;;;;;;;4980956;28;20723;-58
2022/10/26 10:58:50;;;;;;;1.10;1.10;;;;;;;;;;4982669;28;20232;-58
2022/10/26 11:01:17;;;;;;;1.30;1.30;;;;;;;;;;4986366;28;20235;-58
2022/10/26 11:03:50;;;;;;;1.20;1.20;;;;;;;;;;4973811;28;20294;-58
2022/10/26 11:06:19;;;;;;;1.33;1.33;;;;;;;;;;4944405;28;20329;-59
2022/10/26 11:08:54;;;;;;;1.40;1.40;;;;;;;;;;4946431;28;20701;-58
2022/10/26 11:11:21;;;;;;;1.45;1.45;;;;;;;;;;4959689;28;20234;-59
2022/10/26 11:13:59;;;;;;;1.20;1.20;;;;;;;;;;4953283;28;20216;-59
2022/10/26 11:16:39;;;;;;;1.20;1.20;;;;;;;;;;4944393;28;20239;-59
2022/10/26 11:19:23;;;;;;;1.30;1.30;;;;;;;;;;4941065;28;20757;-57
2022/10/26 11:21:50;;;;;;;1.20;1.20;;;;;;;;;;4955048;28;20226;-57
2022/10/26 11:24:22;;;;;;;1.20;1.20;;;;;;;;;;4948393;28;20231;-58
2022/10/26 11:26:54;;;;;;;1.10;1.10;;;;;;;;;;4963267;28;20250;-59
2022/10/26 11:29:38;;;;;;;1.20;1.20;;;;;;;;;;4942612;28;20233;-59
2022/10/26 11:32:06;;;;;;;1.30;1.30;;;;;;;;;;4961491;28;20231;-58
2022/10/26 11:34:32;;;;;;;1.30;1.30;;;;;;;;;;4949574;28;20709;-58
2022/10/26 11:37:01;;;;;;;1.13;1.13;;;;;;;;;;4968573;28;20237;-58
2022/10/26 11:39:38;;;;;;;1.27;1.27;;;;;;;;;;4961982;28;20324;-59
2022/10/26 11:42:23;;;;;;;1.20;1.20;;;;;;;;;;4937729;28;21555;-58
2022/10/26 11:44:51;;;;;;;1.20;1.20;;;;;;;;;;4949765;28;20541;-57
2022/10/26 11:47:34;;;;;;;1.00;1.00;;;;;;;;;;4928893;28;20648;-56
2022/10/26 11:50:11;;;;;;;1.17;1.17;;;;;;;;;;4943270;28;20349;-57
2022/10/26 11:52:39;;;;;;;1.20;1.20;;;;;;;;;;4937601;28;20234;-56
2022/10/26 11:55:05;;;;;;;1.08;1.08;;;;;;;;;;4957325;28;20251;-56
2022/10/26 11:57:34;;;;;;;1.10;1.10;;;;;;;;;;4931352;28;20537;-55
2022/10/26 12:00:05;;;;;;;1.15;1.15;;;;;;;;;;4950295;28;20266;-56
2022/10/26 12:02:31;;;;;;;1.10;1.10;;;;;;;;;;4943913;28;20232;-56
2022/10/26 12:05:05;;;;;;;1.20;1.20;;;;;;;;;;4931096;28;20785;-55
2022/10/26 12:07:32;;;;;;;1.00;1.00;;;;;;;;;;4969326;28;20675;-55
2022/10/26 12:09:58;;;;;;;1.13;1.13;;;;;;;;;;4963384;28;20720;-57
2022/10/26 12:12:44;;;;;;;1.30;1.30;;;;;;;;;;4933794;28;20233;-57
2022/10/26 12:15:10;;;;;;;1.20;1.20;;;;;;;;;;4947348;28;20565;-54
2022/10/26 12:17:38;;;;;;;1.10;1.10;;;;;;;;;;4961308;28;20226;-55
2022/10/26 12:20:12;;;;;;;1.30;1.30;;;;;;;;;;4950172;28;20239;-55
2022/10/26 12:22:42;;;;;;;1.20;1.20;;;;;;;;;;4956808;28;20620;-55
2022/10/26 12:25:14;;;;;;;1.30;1.30;;;;;;;;;;4968849;28;20222;-56
2022/10/26 12:27:40;;;;;;;1.10;1.10;;;;;;;;;;4966399;28;20236;-58
2022/10/26 12:30:18;;;;;;;1.20;1.20;;;;;;;;;;4956156;28;20217;-55
2022/10/26 12:32:45;;;;;;;1.30;1.30;;;;;;;;;;4954942;28;21318;-56
2022/10/26 12:35:30;;;;;;;1.38;1.38;;;;;;;;;;4973705;28;20349;-55
2022/10/26 12:37:56;;;;;;;1.30;1.30;;;;;;;;;;4964585;28;20257;-55
2022/10/26 12:40:31;;;;;;;1.40;1.40;;;;;;;;;;4972974;28;20301;-54
2022/10/26 12:42:57;;;;;;;1.40;1.40;;;;;;;;;;4965653;28;20685;-56
2022/10/26 12:45:23;;;;;;;1.30;1.30;;;;;;;;;;4980564;28;20260;-56
2022/10/26 12:47:49;;;;;;;1.40;1.40;;;;;;;;;;4943400;28;20223;-57
2022/10/26 12:50:22;;;;;;;1.50;1.50;;;;;;;;;;4945183;28;20373;-55
2022/10/26 12:53:00;;;;;;;1.50;1.50;;;;;;;;;;4972905;28;20226;-55
2022/10/26 12:55:35;;;;;;;1.50;1.50;;;;;;;;;;4972167;28;20339;-56
2022/10/26 12:58:19;;;;;;;1.30;1.30;;;;;;;;;;4978247;28;20247;-55
2022/10/26 13:00:48;;;;;;;1.30;1.30;;;;;;;;;;4962112;28;20321;-55
2022/10/26 13:03:23;;;;;;;1.10;1.10;;;;;;;;;;4939249;28;20218;-56
2022/10/26 13:05:49;;;;;;;1.20;1.20;;;;;;;;;;4978415;28;20346;-55
2022/10/26 13:08:15;;;;;;;1.20;1.20;;;;;;;;;;4958104;28;20214;-54
2022/10/26 13:10:44;;;;;;;1.30;1.30;;;;;;;;;;4958399;28;20364;-55
2022/10/26 13:13:18;;;;;;;1.30;1.30;;;;;;;;;;4942279;28;20224;-57
2022/10/26 13:15:56;;;;;;;1.58;1.58;;;;;;;;;;4938548;28;20226;-55
2022/10/26 13:18:22;;;;;;;1.40;1.40;;;;;;;;;;4976684;28;20397;-54
2022/10/26 13:20:51;;;;;;;1.30;1.30;;;;;;;;;;4977437;28;20247;-54
2022/10/26 13:23:23;;;;;;;1.50;1.50;;;;;;;;;;4970744;28;20225;-55
2022/10/26 13:26:12;;;;;;;1.60;1.60;;;;;;;;;;4954796;28;20229;-55
2022/10/26 13:28:38;;;;;;;1.40;1.40;;;;;;;;;;4967550;28;20239;-57
2022/10/26 13:31:05;;;;;;;1.55;1.55;;;;;;;;;;4976665;28;20230;-54
2022/10/26 13:33:35;;;;;;;1.40;1.40;;;;;;;;;;4962338;28;21007;-55
2022/10/26 13:36:01;;;;;;;1.50;1.50;;;;;;;;;;4949111;28;20272;-56
2022/10/26 13:38:28;;;;;;;1.65;1.63;;;;;;;;;;4955367;28;20663;-55
2022/10/26 13:40:57;;;;;;;1.77;1.70;;;;;;;;;;4968266;28;20248;-53
2022/10/26 13:43:23;;;;;;;1.50;1.50;;;;;;;;;;4965194;28;20296;-54
2022/10/26 13:45:56;;;;;;;1.80;1.70;;;;;;;;;;4975461;28;20229;-54
2022/10/26 13:48:23;;;;;;;1.73;1.70;;;;;;;;;;4951640;28;20227;-54
2022/10/26 13:50:51;;;;;;;1.40;1.40;;;;;;;;;;4947209;28;20880;-56
2022/10/26 13:53:23;;;;;;;1.80;1.70;;;;;;;;;;4945899;28;21014;-54
2022/10/26 13:55:51;;;;;;;1.52;1.52;;;;;;;;;;4968303;28;20232;-56
2022/10/26 13:58:22;;;;;;;1.60;1.60;;;;;;;;;;4944780;28;20518;-55
2022/10/26 14:01:04;;;;;;;1.50;1.50;;;;;;;;;;4956512;28;20225;-55
2022/10/26 14:03:29;;;;;;;1.70;1.70;;;;;;;;;;4970684;28;20225;-54
2022/10/26 14:05:55;;;;;;;1.60;1.60;;;;;;;;;;4972806;28;20256;-56
2022/10/26 14:08:21;;;;;;;1.60;1.60;;;;;;;;;;4979825;28;20695;-53
2022/10/26 14:10:51;;;;;;;1.58;1.58;;;;;;;;;;4978062;28;20713;-54
2022/10/26 14:13:17;;;;;;;1.50;1.50;;;;;;;;;;4975234;28;20588;-54
2022/10/26 14:15:44;;;;;;;1.60;1.60;;;;;;;;;;4958667;28;20255;-55
2022/10/26 14:18:15;;;;;;;1.50;1.50;;;;;;;;;;4951862;28;20230;-55
2022/10/26 14:20:41;;;;;;;1.30;1.30;;;;;;;;;;4940652;28;20252;-53
2022/10/26 14:23:24;;;;;;;1.40;1.40;;;;;;;;;;4949376;28;20225;-55
2022/10/26 14:25:53;;;;;;;1.40;1.40;;;;;;;;;;4962029;28;20547;-55
2022/10/26 14:28:23;;;;;;;1.40;1.40;;;;;;;;;;4947405;28;20795;-53
2022/10/26 14:30:50;;;;;;;1.40;1.40;;;;;;;;;;4965919;28;20246;-52
2022/10/26 14:33:19;;;;;;;1.50;1.50;;;;;;;;;;4974572;28;20222;-55
2022/10/26 14:35:46;;;;;;;1.48;1.48;;;;;;;;;;4969448;28;20289;-51
2022/10/26 14:38:32;;;;;;;1.33;1.33;;;;;;;;;;4968862;28;20717;-52
2022/10/26 14:40:58;;;;;;;2.00;1.90;;;;;;;;;;4977179;28;20316;-52
2022/10/26 14:43:24;;;;;;;1.50;1.50;;;;;;;;;;4976773;28;20225;-53
2022/10/26 14:45:51;;;;;;;1.50;1.50;;;;;;;;;;4937302;28;20230;-55
2022/10/26 14:48:29;;;;;;;1.65;1.65;;;;;;;;;;4970058;28;20601;-53
2022/10/26 14:50:58;;;;;;;1.52;1.52;;;;;;;;;;4936561;28;20752;-54
2022/10/26 14:53:29;;;;;;;1.70;1.70;;;;;;;;;;4976510;28;20234;-54